High Ridge, Missouri
Current Conditions -  °F | °C
As of 11:54 AM on Friday 19 Dec 2014 (Local Time) from KSUS Reporting Station
Haze Haze  
Wind Chill: 36°   Ceiling: 6000
Heat Index: 36°   Visibility: 6mi
Dew Point: 28°   Wind: 0mph
Humidity: 73%   Direction: NA
Pressure: 30.28"   Gusts: NA
Location:  38.46°N, 90.53°W
Report Text: KSUS 191754Z 00000KT 6SM HZ FEW015 OVC060 02/M02 A3028 RMK AO2 SLP262 T00221022 10022 20000 58007
Loading
Personal Weather Stations






























Interactive Weather Map New forecast layout! Learn more

10-Day Weather Forecast

Advertisements
Track Severe Weather on mobile